This is the latest recevied weather packets stored in our database for station/object EA5LU-10. If no packets are shown the sender has not sent any weather packets the latest 10 day(s).
| Time | Temp. | Humidity | Pressure | Rain* | Wind** | Luminosity | Snow |
|---|---|---|---|---|---|---|---|
| 1777892041 | 25.56° C | 60% | 1003.9 hPa | - | - | - | - |
| 1777891140 | 24.44° C | 64% | 1004.1 hPa | - | - | - | - |
| 1777890239 | 24.44° C | 64% | 1004.1 hPa | - | - | - | - |
| 1777889339 | 23.89° C | 65% | 1004.2 hPa | - | - | - | - |
| 1777888438 | 24.44° C | 66% | 1004.3 hPa | - | - | - | - |
| 1777887537 | 24.44° C | 65% | 1004.1 hPa | - | - | - | - |
| 1777886636 | 25.56° C | 63% | 1004.2 hPa | - | - | - | - |
| 1777885735 | 25° C | 65% | 1004.2 hPa | - | - | - | - |
| 1777884834 | 23.89° C | 69% | 1004.1 hPa | - | - | - | - |
| 1777883933 | 23.33° C | 72% | 1003.9 hPa | - | - | - | - |
| 1777883032 | 22.78° C | 73% | 1004 hPa | - | - | - | - |
| 1777882132 | 22.22° C | 77% | 1004.2 hPa | - | - | - | - |
| 1777881231 | 21.67° C | 79% | 1004.1 hPa | - | - | - | - |
| 1777880330 | 21.11° C | 80% | 1004.2 hPa | - | - | - | - |
| 1777879429 | 20.56° C | 82% | 1004.4 hPa | - | - | - | - |
| 1777878528 | 20° C | 83% | 1004.1 hPa | - | - | - | - |
| 1777877627 | 20.56° C | 83% | 1004 hPa | - | - | - | - |
| 1777876727 | 20° C | 83% | 1004.1 hPa | - | - | - | - |
| 1777875826 | 20° C | 84% | 1004 hPa | - | - | - | - |
| 1777874925 | 20° C | 84% | 1003.9 hPa | - | - | - | - |
| 1777874024 | 20° C | 84% | 1003.8 hPa | - | - | - | - |
| 1777873123 | 19.44° C | 84% | 1003.7 hPa | - | - | - | - |
| 1777872223 | 19.44° C | 84% | 1003.4 hPa | - | - | - | - |
| 1777871322 | 19.44° C | 85% | 1003.4 hPa | - | - | - | - |
| 1777870421 | 19.44° C | 85% | 1003.4 hPa | - | - | - | - |
* Rain since midnight (hover to see other rain measurements)
** Current wind speed in m/s (hover to see current wind gust speed)